San Jose, CA

6:08 PM PDT on September 15, 2014 (GMT -0700)
Reid-Hillview | Change Station
CLOSE
Current Station
Airport
Location: San Jose Reid,
Elevation: 135 ft
Nearby Weather Stations

Elev 135 ft 37.33 °N, 121.82 °W | Updated 18 minutes ago

Clear
Clear
82 °F
Feels Like 81 °F
N
9
Wind Variable Wind from NW

Today
High -- | Low -- °F
--% Chance of Precip.
Yesterday
High -- | Low -- °F
Precip. -- in
6:49 AM 7:15 PM
Waning Gibbous, 50% visible
Pressure 29.88 in
Visibility 10.0 miles
Clouds Clear
Heat Index 81 °F
Dew Point 54 °F
Humidity 37%
Rainfall 0.00 in
Snow Depth 0 in , 0 in , 2 in
UV 1 out of 12
Pollen 5.40 out of 12
PM2.5 Moderate
Flu Activity Not available.
METAR KRHV 160050Z 31008KT 10SM SKC 28/12 A2988

More Conditions Fewer Conditions

Pressure 29.88 in
Visibility 10.0 miles
Clouds Clear
Heat Index 81 °F
Dew Point 54 °F
Humidity 37%
Rainfall 0.00 in
Snow Depth 0 in , 0 in , 2 in
UV 1 out of 12
Pollen 5.40 out of 12
PM2.5 Moderate
Flu Activity Not available.
METAR KRHV 160050Z 31008KT 10SM SKC 28/12 A2988

More Conditions Fewer Conditions

10-Day Weather Forecast

Almanac

Astronomy

Sep. 15, 2014 Rise Set
Actual Time 6:49 AM PDT 7:15 PM PDT
Civil Twilight 6:23 AM PDT 7:41 PM PDT
Nautical Twilight 5:52 AM PDT 8:11 PM PDT
Astronomical Twilight 5:21 AM PDT 8:43 PM PDT
Moon No Moon Rise 1:47 PM PDT (9/15)
Length of Visible Light 13h 17m
Length of Day
12h 25m
Tomorrow will be 2m 21s shorter.
Waning Gibbous, 50% of the Moon is Illuminated
Today
Waning Gibbous
Sep 15
Last Quarter
Sep 24
New
Oct 1
First Quarter
Oct 8
Full

Today's Extremes

State Highs State Lows

Community

WunderPhotos

Upload Photos

1,753,630 photos uploaded!

WunderBlogs® & News

Nearby

Air Quality

  Air Quality AQ Index Pollutant
Yesterday Good
PM2.5
Yesterday Good
OZONE
Current Moderate
PM2.5
Monday Good
OZONE
Tuesday Good
OZONE
Wednesday Good
OZONE
Thursday Good
OZONE
Friday Good
OZONE
Saturday Good
OZONE

Snow Depth

Station Depth Elevation
Leavitt Meadows 0 in 7200 ft
Adin Mountain 0 in 6200 ft
CSS Lab 2 in 6900 ft

Earthquake Activity

City Distance Mag. Time & Date
Cobb, California 110 miles 2.7 11:07 AM PDT
2014-09-14
Minimum magnitude displayed is 2.5.

Coastal Water Temperatures

Place Temperature
No Stations Reporting

Nearby Weather Stations